Time;durP1;ratioP1;P1;durP2;ratioP2;P2;SDS_P1;SDS_P2;PMS_P1;PMS_P2;Temp;Humidity;BMP_temperature;BMP_pressure;BME280_temperature;BME280_humidity;BME280_pressure;Samples;Min_cycle;Max_cycle;Signal;HPM_P1;HPM_P2
2023/09/01 00:00:12;;;;;;;4.38;1.65;;;;;;;;;;6214960;23;20067;-67
2023/09/01 00:02:39;;;;;;;4.10;1.73;;;;;;;;;;6214619;23;20079;-67
2023/09/01 00:05:06;;;;;;;6.20;1.92;;;;;;;;;;6214949;23;20073;-67
2023/09/01 00:07:32;;;;;;;4.90;1.63;;;;;;;;;;6215155;23;20075;-67
2023/09/01 00:09:58;;;;;;;4.53;1.65;;;;;;;;;;6215008;23;20080;-66
2023/09/01 00:12:25;;;;;;;4.18;1.60;;;;;;;;;;6214802;23;20503;-67
2023/09/01 00:14:52;;;;;;;14.27;1.75;;;;;;;;;;6214922;23;20072;-67
2023/09/01 00:17:18;;;;;;;3.53;1.80;;;;;;;;;;6214375;23;20425;-67
2023/09/01 00:19:44;;;;;;;5.35;2.10;;;;;;;;;;6214771;23;20072;-67
2023/09/01 00:22:11;;;;;;;3.67;1.40;;;;;;;;;;6214723;23;20075;-67
2023/09/01 00:24:37;;;;;;;3.80;1.50;;;;;;;;;;6214812;23;20067;-67
2023/09/01 00:27:03;;;;;;;4.13;1.60;;;;;;;;;;6214738;23;20079;-67
2023/09/01 00:29:33;;;;;;;3.78;1.58;;;;;;;;;;6214672;23;20410;-67
2023/09/01 00:32:00;;;;;;;7.00;1.60;;;;;;;;;;6214387;23;20068;-67
2023/09/01 00:34:26;;;;;;;3.70;1.48;;;;;;;;;;6214770;23;20084;-67
2023/09/01 00:36:52;;;;;;;3.45;1.45;;;;;;;;;;6214487;23;20072;-67
2023/09/01 00:39:19;;;;;;;6.15;1.70;;;;;;;;;;6214602;23;20079;-66
2023/09/01 00:41:45;;;;;;;3.72;1.42;;;;;;;;;;6214726;23;20495;-67
2023/09/01 00:44:14;;;;;;;4.18;1.40;;;;;;;;;;6188049;23;20080;-67
2023/09/01 00:46:46;;;;;;;4.07;1.45;;;;;;;;;;6187841;23;20109;-67
2023/09/01 00:49:13;;;;;;;6.22;1.52;;;;;;;;;;6214495;23;20091;-67
2023/09/01 00:51:40;;;;;;;8.15;2.10;;;;;;;;;;6214637;23;20387;-67
2023/09/01 00:54:06;;;;;;;3.75;1.58;;;;;;;;;;6214616;23;20142;-67
2023/09/01 00:56:32;;;;;;;4.47;1.80;;;;;;;;;;6214541;23;20073;-66
2023/09/01 00:58:59;;;;;;;6.00;1.85;;;;;;;;;;6214571;23;20071;-67
2023/09/01 01:01:25;;;;;;;3.63;1.55;;;;;;;;;;6214229;23;20071;-66
2023/09/01 01:03:52;;;;;;;6.60;1.92;;;;;;;;;;6214409;23;20087;-67
2023/09/01 01:06:21;;;;;;;5.43;1.75;;;;;;;;;;6214491;23;20080;-67
2023/09/01 01:09:08;;;;;;;2.97;1.67;;;;;;;;;;6214527;23;20079;-67
2023/09/01 01:11:53;;;;;;;2.65;1.40;;;;;;;;;;6214517;23;20068;-66
2023/09/01 01:14:22;;;;;;;4.63;1.55;;;;;;;;;;6214149;23;20075;-67
2023/09/01 01:16:50;;;;;;;4.18;1.40;;;;;;;;;;6214457;23;20570;-67
2023/09/01 01:19:38;;;;;;;2.15;1.40;;;;;;;;;;6214822;23;20075;-67
2023/09/01 01:22:05;;;;;;;6.03;1.50;;;;;;;;;;6214585;23;20068;-66
2023/09/01 01:24:34;;;;;;;6.00;1.40;;;;;;;;;;6214495;23;20406;-67
2023/09/01 01:27:01;;;;;;;4.60;1.63;;;;;;;;;;6214417;23;20067;-66
2023/09/01 01:29:27;;;;;;;4.65;1.88;;;;;;;;;;6213988;23;20108;-67
2023/09/01 01:31:54;;;;;;;4.78;1.70;;;;;;;;;;6214388;23;20075;-66
2023/09/01 01:34:25;;;;;;;5.57;1.80;;;;;;;;;;6214554;23;20071;-66
2023/09/01 01:37:00;;;;;;;5.30;1.40;;;;;;;;;;6216160;23;20083;-67
2023/09/01 01:39:28;;;;;;;4.50;1.48;;;;;;;;;;6189725;23;20072;-66
2023/09/01 01:42:02;;;;;;;2.10;1.20;;;;;;;;;;6216196;23;20396;-67
2023/09/01 01:44:31;;;;;;;3.33;1.20;;;;;;;;;;6215849;23;20083;-67
2023/09/01 01:46:58;;;;;;;2.60;1.45;;;;;;;;;;6189644;23;20375;-67
2023/09/01 01:49:24;;;;;;;4.68;1.67;;;;;;;;;;6189520;23;20096;-67
2023/09/01 01:51:50;;;;;;;4.03;1.75;;;;;;;;;;6216164;23;20096;-67
2023/09/01 01:54:17;;;;;;;3.53;1.42;;;;;;;;;;6216191;23;20161;-67
2023/09/01 01:56:43;;;;;;;2.42;1.40;;;;;;;;;;6216030;23;20080;-66
2023/09/01 01:59:09;;;;;;;4.05;1.50;;;;;;;;;;6215770;23;20076;-66
2023/09/01 02:01:36;;;;;;;5.55;1.80;;;;;;;;;;6216147;23;20075;-66
2023/09/01 02:04:05;;;;;;;7.50;2.13;;;;;;;;;;6216200;23;20502;-67
2023/09/01 02:06:31;;;;;;;1.92;1.40;;;;;;;;;;6215935;23;20068;-66
2023/09/01 02:08:58;;;;;;;5.47;1.70;;;;;;;;;;6215983;23;20137;-67
2023/09/01 02:11:24;;;;;;;3.53;1.55;;;;;;;;;;6216329;23;20068;-67
2023/09/01 02:13:50;;;;;;;5.72;1.63;;;;;;;;;;6215573;23;20067;-66
2023/09/01 02:16:17;;;;;;;3.35;1.77;;;;;;;;;;6215964;23;20080;-66
2023/09/01 02:18:43;;;;;;;6.22;1.70;;;;;;;;;;6215878;23;20437;-67
2023/09/01 02:21:17;;;;;;;3.97;1.80;;;;;;;;;;6215909;23;20123;-66
2023/09/01 02:23:44;;;;;;;3.67;1.52;;;;;;;;;;6215899;23;20092;-67
2023/09/01 02:26:10;;;;;;;3.25;1.42;;;;;;;;;;6215856;23;20052;-66
2023/09/01 02:28:36;;;;;;;2.75;1.92;;;;;;;;;;6215469;23;20092;-66
2023/09/01 02:31:09;;;;;;;4.70;1.70;;;;;;;;;;6215821;23;20067;-66
2023/09/01 02:33:35;;;;;;;2.88;1.60;;;;;;;;;;6215865;23;20437;-66
2023/09/01 02:36:20;;;;;;;4.10;1.75;;;;;;;;;;6215605;23;20076;-66
2023/09/01 02:38:46;;;;;;;3.08;1.23;;;;;;;;;;6215769;23;20083;-66
2023/09/01 02:41:13;;;;;;;3.47;1.60;;;;;;;;;;6215934;23;20071;-67
2023/09/01 02:43:39;;;;;;;4.40;1.90;;;;;;;;;;6215302;23;20076;-66
2023/09/01 02:46:05;;;;;;;4.43;1.63;;;;;;;;;;6215547;23;20064;-66
2023/09/01 02:48:32;;;;;;;6.13;1.88;;;;;;;;;;6215553;23;20079;-66
2023/09/01 02:50:58;;;;;;;5.53;2.08;;;;;;;;;;6215736;23;20530;-67
2023/09/01 02:53:25;;;;;;;4.32;1.67;;;;;;;;;;6215690;23;20080;-67
2023/09/01 02:55:51;;;;;;;4.32;1.48;;;;;;;;;;6215079;23;20083;-66
2023/09/01 02:58:17;;;;;;;3.33;1.50;;;;;;;;;;6215620;23;20072;-67
2023/09/01 03:00:44;;;;;;;4.32;1.67;;;;;;;;;;6215534;23;20491;-66
2023/09/01 03:03:10;;;;;;;3.80;1.70;;;;;;;;;;6215543;23;20072;-66
2023/09/01 03:05:37;;;;;;;4.03;1.70;;;;;;;;;;6215474;23;20076;-66
2023/09/01 03:08:05;;;;;;;2.58;1.50;;;;;;;;;;6215508;23;20084;-66
2023/09/01 03:10:32;;;;;;;3.17;1.73;;;;;;;;;;6215035;23;20084;-67
2023/09/01 03:12:58;;;;;;;5.80;1.70;;;;;;;;;;6215367;23;20507;-67
2023/09/01 03:15:26;;;;;;;3.13;1.60;;;;;;;;;;6215373;23;20072;-66
2023/09/01 03:17:52;;;;;;;4.55;2.03;;;;;;;;;;6215312;23;20403;-67
2023/09/01 03:20:18;;;;;;;3.13;1.90;;;;;;;;;;6215424;23;20068;-67
2023/09/01 03:22:45;;;;;;;4.22;1.50;;;;;;;;;;6215392;23;20071;-66
2023/09/01 03:25:11;;;;;;;4.57;1.70;;;;;;;;;;6214823;23;20080;-66
2023/09/01 03:27:37;;;;;;;2.60;1.63;;;;;;;;;;6188496;23;20084;-66
2023/09/01 03:30:04;;;;;;;2.33;1.52;;;;;;;;;;6215355;23;20435;-67
2023/09/01 03:32:31;;;;;;;4.55;1.83;;;;;;;;;;6215183;23;20071;-67
2023/09/01 03:34:57;;;;;;;4.35;1.52;;;;;;;;;;6215126;23;20076;-66
2023/09/01 03:37:24;;;;;;;4.20;1.50;;;;;;;;;;6214982;23;20065;-66
2023/09/01 03:39:51;;;;;;;4.38;1.92;;;;;;;;;;6215019;23;20075;-67
2023/09/01 03:42:17;;;;;;;6.28;2.08;;;;;;;;;;6188571;23;20079;-66
2023/09/01 03:44:43;;;;;;;3.25;1.77;;;;;;;;;;6188761;23;20085;-66
2023/09/01 03:47:10;;;;;;;5.72;1.90;;;;;;;;;;6214923;23;20107;-67
2023/09/01 03:49:37;;;;;;;2.85;1.80;;;;;;;;;;6215032;23;20079;-67
2023/09/01 03:52:03;;;;;;;3.55;1.90;;;;;;;;;;6215116;23;20071;-67
2023/09/01 03:54:29;;;;;;;4.18;1.92;;;;;;;;;;6214608;23;20068;-67
2023/09/01 03:56:56;;;;;;;3.88;1.60;;;;;;;;;;6214739;23;20075;-66
2023/09/01 03:59:22;;;;;;;2.75;1.48;;;;;;;;;;6214918;23;20131;-66
2023/09/01 04:01:48;;;;;;;2.88;1.60;;;;;;;;;;6215045;23;20508;-66
2023/09/01 04:04:16;;;;;;;3.35;1.60;;;;;;;;;;6214991;23;20383;-65
2023/09/01 04:06:43;;;;;;;3.83;1.75;;;;;;;;;;6214881;23;20072;-67
2023/09/01 04:09:09;;;;;;;3.75;1.73;;;;;;;;;;6214403;23;20402;-65
2023/09/01 04:11:35;;;;;;;7.85;2.00;;;;;;;;;;6214946;23;20072;-66
2023/09/01 04:14:02;;;;;;;2.97;1.70;;;;;;;;;;6214999;23;20067;-66
2023/09/01 04:16:28;;;;;;;3.00;2.00;;;;;;;;;;6214806;23;20076;-67
2023/09/01 04:18:55;;;;;;;3.28;2.00;;;;;;;;;;6214852;23;20075;-66
2023/09/01 04:21:22;;;;;;;2.45;1.55;;;;;;;;;;6214890;23;20080;-66
2023/09/01 04:23:48;;;;;;;4.80;1.83;;;;;;;;;;6214345;23;20075;-66
2023/09/01 04:26:15;;;;;;;2.25;1.50;;;;;;;;;;6214868;23;20527;-66
2023/09/01 04:28:41;;;;;;;4.00;1.70;;;;;;;;;;6214707;23;20067;-65
2023/09/01 04:31:18;;;;;;;3.53;1.70;;;;;;;;;;6214750;23;20135;-66
2023/09/01 04:33:44;;;;;;;2.95;1.60;;;;;;;;;;6214704;23;20071;-66
2023/09/01 04:36:10;;;;;;;3.55;1.77;;;;;;;;;;6214577;23;20498;-66
2023/09/01 04:38:37;;;;;;;3.80;1.85;;;;;;;;;;6214284;23;20127;-67
2023/09/01 04:41:03;;;;;;;6.07;1.90;;;;;;;;;;6214598;23;20087;-67
2023/09/01 04:43:29;;;;;;;5.93;1.77;;;;;;;;;;6214662;23;20119;-66
2023/09/01 04:45:57;;;;;;;4.47;1.50;;;;;;;;;;6214637;23;20396;-66
2023/09/01 04:48:24;;;;;;;3.60;1.65;;;;;;;;;;6214631;23;20092;-67
2023/09/01 04:50:50;;;;;;;3.15;1.70;;;;;;;;;;6214737;23;20079;-66
2023/09/01 04:53:18;;;;;;;3.97;1.70;;;;;;;;;;6214300;23;20556;-66
2023/09/01 04:55:44;;;;;;;3.90;1.73;;;;;;;;;;6214605;23;20083;-66
2023/09/01 04:58:11;;;;;;;3.00;1.70;;;;;;;;;;6214619;23;20072;-66
2023/09/01 05:00:37;;;;;;;6.28;1.90;;;;;;;;;;6214697;23;20506;-66
2023/09/01 05:03:04;;;;;;;4.30;1.92;;;;;;;;;;6214631;23;20067;-66
2023/09/01 05:05:30;;;;;;;3.30;1.60;;;;;;;;;;6214524;23;20076;-66
2023/09/01 05:07:57;;;;;;;3.03;1.70;;;;;;;;;;6187557;23;20083;-66
2023/09/01 05:10:23;;;;;;;4.78;1.70;;;;;;;;;;6216353;23;20091;-66
2023/09/01 05:12:49;;;;;;;1.73;1.38;;;;;;;;;;6216608;23;20072;-66
2023/09/01 05:15:15;;;;;;;3.25;1.70;;;;;;;;;;6216749;23;20083;-66
2023/09/01 05:17:42;;;;;;;5.53;1.88;;;;;;;;;;6189937;23;20502;-66
2023/09/01 05:20:11;;;;;;;3.15;1.92;;;;;;;;;;6216562;23;20079;-66
2023/09/01 05:22:37;;;;;;;6.47;1.70;;;;;;;;;;6216152;23;20076;-67
2023/09/01 05:25:04;;;;;;;3.80;1.73;;;;;;;;;;6216479;23;20080;-66
2023/09/01 05:27:30;;;;;;;4.72;1.63;;;;;;;;;;6189898;23;20080;-65
2023/09/01 05:29:57;;;;;;;2.53;1.67;;;;;;;;;;6216204;23;20087;-66
2023/09/01 05:32:23;;;;;;;6.90;2.10;;;;;;;;;;6216347;23;20377;-66
2023/09/01 05:34:49;;;;;;;4.15;1.75;;;;;;;;;;6216341;23;20087;-66
2023/09/01 05:37:16;;;;;;;4.28;1.75;;;;;;;;;;6215842;23;20554;-65
2023/09/01 05:39:42;;;;;;;5.55;1.52;;;;;;;;;;6216327;23;20084;-65
2023/09/01 05:42:10;;;;;;;4.40;2.10;;;;;;;;;;6216379;23;20071;-65
2023/09/01 05:44:36;;;;;;;5.72;1.90;;;;;;;;;;6216263;23;20063;-66
2023/09/01 05:47:06;;;;;;;3.63;1.90;;;;;;;;;;6216119;23;20398;-66
2023/09/01 05:49:32;;;;;;;3.28;1.95;;;;;;;;;;6216187;23;20503;-66
2023/09/01 05:51:59;;;;;;;4.47;1.90;;;;;;;;;;6215995;23;20376;-66
2023/09/01 05:54:26;;;;;;;3.10;1.80;;;;;;;;;;6216172;23;20076;-66
2023/09/01 05:56:52;;;;;;;5.97;1.83;;;;;;;;;;6216103;23;20063;-67
2023/09/01 05:59:18;;;;;;;11.13;2.10;;;;;;;;;;6189611;23;20135;-66
2023/09/01 06:01:46;;;;;;;9.02;1.95;;;;;;;;;;6216154;23;20381;-66
2023/09/01 06:04:12;;;;;;;6.22;2.00;;;;;;;;;;6216116;23;20083;-66
2023/09/01 06:06:39;;;;;;;5.70;2.17;;;;;;;;;;6215577;23;20060;-66
2023/09/01 06:09:07;;;;;;;7.15;2.22;;;;;;;;;;6216012;23;20087;-66
2023/09/01 06:11:34;;;;;;;4.07;1.85;;;;;;;;;;6216008;23;20067;-67
2023/09/01 06:14:01;;;;;;;6.00;1.80;;;;;;;;;;6216207;23;20076;-66
2023/09/01 06:16:27;;;;;;;9.90;2.47;;;;;;;;;;6215949;23;20076;-67
2023/09/01 06:18:54;;;;;;;15.35;2.67;;;;;;;;;;6215447;23;20080;-66
2023/09/01 06:21:21;;;;;;;10.65;2.22;;;;;;;;;;6215579;23;20191;-67
2023/09/01 06:23:48;;;;;;;4.47;1.77;;;;;;;;;;6215857;23;20079;-66
2023/09/01 06:26:17;;;;;;;7.47;1.75;;;;;;;;;;6216157;23;20063;-66
2023/09/01 06:28:43;;;;;;;5.70;2.00;;;;;;;;;;6215911;23;20095;-66
2023/09/01 06:31:09;;;;;;;3.17;2.13;;;;;;;;;;6215239;23;20068;-66
2023/09/01 06:33:42;;;;;;;5.75;2.17;;;;;;;;;;6209793;23;20079;-66
2023/09/01 06:36:13;;;;;;;6.30;2.10;;;;;;;;;;6214590;23;20076;-66
2023/09/01 06:38:42;;;;;;;4.07;1.95;;;;;;;;;;6215215;23;20084;-66
2023/09/01 06:41:10;;;;;;;5.85;1.90;;;;;;;;;;6215080;23;20023;-67
2023/09/01 06:43:37;;;;;;;5.30;1.80;;;;;;;;;;6214350;23;20068;-66
2023/09/01 06:46:03;;;;;;;3.60;1.80;;;;;;;;;;6214967;23;20087;-66
2023/09/01 06:48:30;;;;;;;2.45;1.48;;;;;;;;;;6213969;23;20076;-67
2023/09/01 06:50:59;;;;;;;5.10;1.60;;;;;;;;;;6214139;23;20068;-67
2023/09/01 06:53:26;;;;;;;4.22;1.80;;;;;;;;;;6215087;23;20079;-66
2023/09/01 06:55:52;;;;;;;2.03;1.52;;;;;;;;;;6214912;23;20489;-66
2023/09/01 06:58:18;;;;;;;3.00;1.70;;;;;;;;;;6214650;23;20075;-67
2023/09/01 07:00:44;;;;;;;2.92;1.90;;;;;;;;;;6214917;23;20063;-66
2023/09/01 07:03:11;;;;;;;9.35;2.13;;;;;;;;;;6214193;23;20156;-67
2023/09/01 07:05:38;;;;;;;9.00;2.33;;;;;;;;;;6214338;23;20076;-67
2023/09/01 07:08:04;;;;;;;5.60;2.03;;;;;;;;;;6214802;23;20437;-67
2023/09/01 07:10:30;;;;;;;4.45;2.15;;;;;;;;;;6214967;23;20114;-67
2023/09/01 07:12:57;;;;;;;3.22;2.00;;;;;;;;;;6212744;23;20072;-67
2023/09/01 07:15:23;;;;;;;3.78;1.65;;;;;;;;;;6213987;23;20093;-67
2023/09/01 07:17:49;;;;;;;6.20;1.92;;;;;;;;;;6213282;23;20084;-67
2023/09/01 07:20:15;;;;;;;4.43;1.85;;;;;;;;;;6213593;23;20067;-67
2023/09/01 07:22:42;;;;;;;3.55;2.00;;;;;;;;;;6214169;23;20495;-67
2023/09/01 07:25:11;;;;;;;6.95;2.05;;;;;;;;;;6213864;23;20535;-67
2023/09/01 07:27:37;;;;;;;4.97;2.20;;;;;;;;;;6213949;23;20064;-67
2023/09/01 07:30:04;;;;;;;8.80;2.30;;;;;;;;;;6214032;23;20088;-67
2023/09/01 07:32:33;;;;;;;5.57;2.13;;;;;;;;;;6212825;23;20111;-67
2023/09/01 07:34:59;;;;;;;4.47;2.00;;;;;;;;;;6213699;23;20063;-67
2023/09/01 07:37:26;;;;;;;3.85;1.73;;;;;;;;;;6213605;23;20088;-67
2023/09/01 07:39:52;;;;;;;4.47;1.63;;;;;;;;;;6213415;23;20103;-67
2023/09/01 07:42:19;;;;;;;3.40;1.70;;;;;;;;;;6213280;23;20069;-67
2023/09/01 07:44:46;;;;;;;6.47;1.98;;;;;;;;;;6213751;23;20083;-67
2023/09/01 07:47:12;;;;;;;4.68;1.80;;;;;;;;;;6213316;23;20388;-67
2023/09/01 07:49:39;;;;;;;4.50;1.75;;;;;;;;;;6186743;23;20042;-67
2023/09/01 07:52:05;;;;;;;3.28;1.92;;;;;;;;;;6213597;23;20392;-67
2023/09/01 07:54:32;;;;;;;3.33;1.70;;;;;;;;;;6213572;23;20075;-67
2023/09/01 07:56:59;;;;;;;4.70;1.90;;;;;;;;;;6213058;23;20076;-67
2023/09/01 07:59:25;;;;;;;3.50;1.55;;;;;;;;;;6187348;23;20498;-67
2023/09/01 08:01:52;;;;;;;5.95;1.50;;;;;;;;;;6213146;23;20084;-67
2023/09/01 08:04:18;;;;;;;8.95;1.75;;;;;;;;;;6213562;23;20079;-67
2023/09/01 08:06:46;;;;;;;3.50;1.52;;;;;;;;;;6213772;23;20080;-67
2023/09/01 08:09:13;;;;;;;2.75;1.48;;;;;;;;;;6213300;23;20088;-67
2023/09/01 08:11:39;;;;;;;4.25;2.00;;;;;;;;;;6213553;23;20461;-67
2023/09/01 08:14:06;;;;;;;3.33;1.50;;;;;;;;;;6212623;23;20099;-67
2023/09/01 08:16:32;;;;;;;4.30;1.70;;;;;;;;;;6186081;23;20072;-67
2023/09/01 08:18:59;;;;;;;2.85;1.55;;;;;;;;;;6213544;23;20076;-67
2023/09/01 08:21:25;;;;;;;4.03;1.80;;;;;;;;;;6213428;23;20404;-67
2023/09/01 08:23:52;;;;;;;3.20;1.75;;;;;;;;;;6213443;23;20068;-67
2023/09/01 08:26:18;;;;;;;2.67;1.50;;;;;;;;;;6213103;23;20538;-67
2023/09/01 08:28:44;;;;;;;4.35;1.60;;;;;;;;;;6212777;23;20079;-67
2023/09/01 08:31:11;;;;;;;4.75;1.70;;;;;;;;;;6212398;23;20135;-67
2023/09/01 08:33:37;;;;;;;4.30;1.63;;;;;;;;;;6213194;23;20080;-67
2023/09/01 08:36:04;;;;;;;4.13;1.70;;;;;;;;;;6213326;23;20495;-67
2023/09/01 08:38:30;;;;;;;3.92;1.60;;;;;;;;;;6212996;23;20244;-67
2023/09/01 08:41:15;;;;;;;5.45;1.75;;;;;;;;;;6186758;23;20458;-67
2023/09/01 08:43:43;;;;;;;4.20;1.77;;;;;;;;;;6213116;23;20131;-67
2023/09/01 08:46:12;;;;;;;3.95;1.75;;;;;;;;;;6212631;23;20080;-67
2023/09/01 08:48:38;;;;;;;3.30;1.50;;;;;;;;;;6213028;23;20083;-67
2023/09/01 08:51:05;;;;;;;4.68;1.95;;;;;;;;;;6213407;23;20080;-67
2023/09/01 08:53:32;;;;;;;6.97;1.90;;;;;;;;;;6213641;23;20068;-67
2023/09/01 08:55:59;;;;;;;3.92;1.65;;;;;;;;;;6213505;23;20495;-67
2023/09/01 08:58:25;;;;;;;5.72;2.15;;;;;;;;;;6212667;23;20075;-67
2023/09/01 09:00:51;;;;;;;4.78;1.70;;;;;;;;;;6213545;23;20076;-67
2023/09/01 09:03:18;;;;;;;4.32;1.73;;;;;;;;;;6213509;23;20064;-67
2023/09/01 09:05:45;;;;;;;2.95;1.55;;;;;;;;;;6213596;23;20087;-67
2023/09/01 09:08:11;;;;;;;3.67;1.63;;;;;;;;;;6211322;23;20060;-67
2023/09/01 09:10:41;;;;;;;6.22;1.67;;;;;;;;;;6213459;23;20088;-67
2023/09/01 09:13:08;;;;;;;;;;;;;;;;;;6213227;23;20736;-67
2023/09/01 09:15:34;;;;;;;3.00;1.88;;;;;;;;;;6213350;23;20014;-67
2023/09/01 09:18:00;;;;;;;2.55;1.63;;;;;;;;;;6213563;23;20072;-67
2023/09/01 09:20:36;;;;;;;4.15;2.00;;;;;;;;;;6213142;23;20629;-67
2023/09/01 09:23:03;;;;;;;6.35;1.80;;;;;;;;;;6213284;23;20131;-67
2023/09/01 09:25:33;;;;;;;2.83;1.30;;;;;;;;;;6213130;23;20408;-67
2023/09/01 09:28:01;;;;;;;4.18;2.00;;;;;;;;;;6211181;23;20071;-67
2023/09/01 09:30:28;;;;;;;4.50;1.60;;;;;;;;;;6212847;23;20283;-67
2023/09/01 09:33:07;;;;;;;5.82;1.73;;;;;;;;;;6213142;23;20067;-68
2023/09/01 09:35:34;;;;;;;8.50;1.52;;;;;;;;;;6212662;23;20091;-67
2023/09/01 09:38:00;;;;;;;4.45;1.73;;;;;;;;;;6213220;23;20084;-67
2023/09/01 09:40:27;;;;;;;6.05;1.58;;;;;;;;;;6213088;23;20084;-67
2023/09/01 09:42:58;;;;;;;4.93;2.00;;;;;;;;;;6212004;23;20064;-68
2023/09/01 09:45:26;;;;;;;7.25;1.60;;;;;;;;;;6212797;23;20139;-67
2023/09/01 09:47:54;;;;;;;3.03;1.42;;;;;;;;;;6212907;23;20072;-68
2023/09/01 09:50:21;;;;;;;2.53;1.52;;;;;;;;;;6212913;23;20531;-67
2023/09/01 09:52:50;;;;;;;3.55;1.88;;;;;;;;;;6213265;23;20064;-67
2023/09/01 09:55:22;;;;;;;4.15;1.45;;;;;;;;;;6213442;23;20075;-67
2023/09/01 09:57:50;;;;;;;3.60;1.50;;;;;;;;;;6214790;23;20068;-67
2023/09/01 10:00:19;;;;;;;2.67;1.48;;;;;;;;;;6214759;23;20076;-67
2023/09/01 10:02:51;;;;;;;4.93;1.92;;;;;;;;;;6214266;23;20088;-67
2023/09/01 10:05:18;;;;;;;4.00;1.80;;;;;;;;;;6214741;23;20080;-67
2023/09/01 10:07:44;;;;;;;3.65;1.65;;;;;;;;;;6215040;23;20064;-67
2023/09/01 10:10:11;;;;;;;3.25;1.70;;;;;;;;;;6187565;23;20091;-67
2023/09/01 10:12:37;;;;;;;3.58;1.50;;;;;;;;;;6214429;23;20075;-67
2023/09/01 10:15:04;;;;;;;3.97;1.58;;;;;;;;;;6214433;23;20079;-68
2023/09/01 10:17:33;;;;;;;2.30;1.27;;;;;;;;;;6214774;23;20080;-68
2023/09/01 10:20:04;;;;;;;4.75;1.30;;;;;;;;;;6215268;23;20109;-67
2023/09/01 10:22:30;;;;;;;2.63;1.60;;;;;;;;;;6215410;23;20499;-68
2023/09/01 10:25:10;;;;;;;5.60;1.65;;;;;;;;;;6215145;23;20079;-67
2023/09/01 10:27:37;;;;;;;6.78;1.88;;;;;;;;;;6215070;23;20384;-67
2023/09/01 10:30:23;;;;;;;4.10;1.27;;;;;;;;;;6215365;23;20072;-67
2023/09/01 10:32:49;;;;;;;3.10;1.40;;;;;;;;;;6215449;23;20068;-67
2023/09/01 10:35:35;;;;;;;1.83;1.58;;;;;;;;;;6215216;23;20083;-67
2023/09/01 10:38:20;;;;;;;2.13;1.50;;;;;;;;;;6215113;23;20080;-68
2023/09/01 10:40:54;;;;;;;2.63;1.38;;;;;;;;;;6214957;23;20084;-68
2023/09/01 10:43:41;;;;;;;4.80;1.60;;;;;;;;;;6215287;23;20073;-67
2023/09/01 10:46:16;;;;;;;3.53;1.60;;;;;;;;;;6191050;23;20088;-67
2023/09/01 10:48:59;;;;;;;2.80;1.58;;;;;;;;;;6215276;23;20084;-67
2023/09/01 10:51:26;;;;;;;3.67;1.60;;;;;;;;;;6215276;23;20072;-67
2023/09/01 10:53:55;;;;;;;4.03;1.35;;;;;;;;;;6215179;23;20072;-67
2023/09/01 10:56:22;;;;;;;2.90;1.38;;;;;;;;;;6214745;23;20068;-67
2023/09/01 10:58:50;;;;;;;2.25;1.17;;;;;;;;;;6215306;23;20076;-67
2023/09/01 11:01:32;;;;;;;2.25;1.42;;;;;;;;;;6215284;23;20076;-67
2023/09/01 11:04:14;;;;;;;2.92;1.30;;;;;;;;;;6215195;23;20083;-67
2023/09/01 11:07:06;;;;;;;1.30;0.93;;;;;;;;;;6214988;23;20426;-67
2023/09/01 11:09:33;;;;;;;2.58;1.25;;;;;;;;;;6214774;23;20523;-67
2023/09/01 11:11:59;;;;;;;3.10;1.88;;;;;;;;;;6215003;23;20071;-67
2023/09/01 11:14:25;;;;;;;11.50;1.23;;;;;;;;;;6215042;23;20079;-67
2023/09/01 11:16:52;;;;;;;3.85;1.20;;;;;;;;;;6215164;23;20088;-67
2023/09/01 11:19:18;;;;;;;3.08;1.20;;;;;;;;;;6215165;23;20075;-67
2023/09/01 11:21:46;;;;;;;4.88;1.40;;;;;;;;;;6215136;23;20079;-67
2023/09/01 11:24:13;;;;;;;4.38;1.08;;;;;;;;;;6214641;23;20067;-67
2023/09/01 11:26:39;;;;;;;5.93;1.65;;;;;;;;;;6214916;23;20067;-68
2023/09/01 11:29:09;;;;;;;2.60;1.50;;;;;;;;;;6214735;23;20079;-67
2023/09/01 11:31:38;;;;;;;1.63;1.10;;;;;;;;;;6215069;23;20076;-67
2023/09/01 11:34:05;;;;;;;2.60;1.45;;;;;;;;;;6214961;23;20591;-67
2023/09/01 11:36:32;;;;;;;3.78;1.27;;;;;;;;;;6214544;23;20088;-67
2023/09/01 11:38:58;;;;;;;2.90;1.23;;;;;;;;;;6214195;23;20079;-68
2023/09/01 11:41:26;;;;;;;2.70;1.23;;;;;;;;;;6214890;23;20071;-68
2023/09/01 11:43:56;;;;;;;2.25;1.20;;;;;;;;;;6214840;23;20516;-68
2023/09/01 11:46:32;;;;;;;2.70;1.00;;;;;;;;;;6187984;23;20115;-67
2023/09/01 11:49:02;;;;;;;1.52;1.08;;;;;;;;;;6188194;23;20532;-67
2023/09/01 11:51:31;;;;;;;2.92;1.52;;;;;;;;;;6214791;23;20075;-67
2023/09/01 11:53:58;;;;;;;1.35;1.15;;;;;;;;;;6214435;23;20079;-67
2023/09/01 11:56:25;;;;;;;3.65;1.30;;;;;;;;;;6214538;23;20079;-68
2023/09/01 11:58:52;;;;;;;2.55;1.40;;;;;;;;;;6214728;23;20067;-68
2023/09/01 12:01:19;;;;;;;2.83;1.33;;;;;;;;;;6212981;23;20088;-68
2023/09/01 12:03:46;;;;;;;2.40;1.27;;;;;;;;;;6213746;23;20079;-67
2023/09/01 12:06:16;;;;;;;2.13;1.08;;;;;;;;;;6213701;23;20510;-67
2023/09/01 12:08:43;;;;;;;1.33;1.20;;;;;;;;;;6213711;23;20079;-67
2023/09/01 12:11:09;;;;;;;2.75;1.30;;;;;;;;;;6209863;23;20095;-68
2023/09/01 12:13:36;;;;;;;2.58;1.10;;;;;;;;;;6213628;23;20072;-67
2023/09/01 12:16:03;;;;;;;3.35;1.23;;;;;;;;;;6213952;23;20127;-68
2023/09/01 12:18:38;;;;;;;3.30;1.25;;;;;;;;;;6213461;23;20072;-68
2023/09/01 12:21:06;;;;;;;3.30;1.30;;;;;;;;;;6213437;23;20076;-68
2023/09/01 12:23:33;;;;;;;3.35;1.30;;;;;;;;;;6213426;23;20067;-68
2023/09/01 12:26:01;;;;;;;1.58;1.23;;;;;;;;;;6213121;23;20087;-68
2023/09/01 12:28:28;;;;;;;1.40;1.30;;;;;;;;;;6213461;23;20068;-68
2023/09/01 12:30:55;;;;;;;5.03;1.00;;;;;;;;;;6213459;23;20071;-68
2023/09/01 12:33:22;;;;;;;5.85;1.48;;;;;;;;;;6186902;23;20072;-68
2023/09/01 12:35:49;;;;;;;2.45;1.20;;;;;;;;;;6213245;23;20510;-71
2023/09/01 12:38:16;;;;;;;1.95;1.10;;;;;;;;;;6213506;23;20112;-68
2023/09/01 12:40:42;;;;;;;3.35;1.40;;;;;;;;;;6213741;23;20079;-68
2023/09/01 12:43:08;;;;;;;1.98;1.42;;;;;;;;;;6213606;23;20376;-68
2023/09/01 12:45:35;;;;;;;7.25;1.40;;;;;;;;;;6213553;23;20087;-68
2023/09/01 12:48:01;;;;;;;2.95;1.30;;;;;;;;;;6213781;23;20076;-68
2023/09/01 12:50:28;;;;;;;2.83;1.40;;;;;;;;;;6213382;23;20084;-68
2023/09/01 12:52:56;;;;;;;5.35;1.40;;;;;;;;;;6214269;23;20079;-67
2023/09/01 12:55:22;;;;;;;2.78;1.30;;;;;;;;;;6214249;23;20095;-68
2023/09/01 12:57:49;;;;;;;3.15;1.33;;;;;;;;;;6214035;23;20072;-68
2023/09/01 13:00:15;;;;;;;3.22;1.40;;;;;;;;;;6214216;23;20135;-68
2023/09/01 13:02:42;;;;;;;3.42;1.40;;;;;;;;;;6185559;23;20076;-67
2023/09/01 13:05:09;;;;;;;1.80;1.02;;;;;;;;;;6212819;23;20091;-67
2023/09/01 13:07:35;;;;;;;2.45;1.30;;;;;;;;;;6186952;23;20364;-68
2023/09/01 13:10:02;;;;;;;3.60;1.20;;;;;;;;;;6213589;23;20144;-67
2023/09/01 13:12:28;;;;;;;1.88;1.20;;;;;;;;;;6213320;23;20076;-68
2023/09/01 13:14:58;;;;;;;2.33;1.40;;;;;;;;;;6213247;23;20079;-68
2023/09/01 13:17:25;;;;;;;3.42;1.40;;;;;;;;;;6213911;23;20059;-68
2023/09/01 13:19:52;;;;;;;3.25;1.38;;;;;;;;;;6212813;23;20075;-68
2023/09/01 13:22:18;;;;;;;4.85;1.40;;;;;;;;;;6213517;23;20075;-68
2023/09/01 13:24:45;;;;;;;2.17;1.25;;;;;;;;;;6213518;23;20079;-68
2023/09/01 13:27:11;;;;;;;3.33;1.38;;;;;;;;;;6213565;23;20111;-68
2023/09/01 13:29:37;;;;;;;7.30;1.70;;;;;;;;;;6213073;23;20405;-68
2023/09/01 13:32:04;;;;;;;3.22;1.50;;;;;;;;;;6214831;23;20071;-68
2023/09/01 13:34:30;;;;;;;6.32;1.65;;;;;;;;;;6214751;23;20083;-68
2023/09/01 13:36:56;;;;;;;3.25;1.15;;;;;;;;;;6215205;23;20400;-67
2023/09/01 13:39:23;;;;;;;2.60;1.35;;;;;;;;;;6215171;23;20092;-68
2023/09/01 13:41:49;;;;;;;4.22;1.48;;;;;;;;;;6214942;23;20076;-68
2023/09/01 13:44:16;;;;;;;2.22;1.10;;;;;;;;;;6163898;23;20087;-68
2023/09/01 13:46:42;;;;;;;2.92;1.42;;;;;;;;;;6188793;23;20084;-68
2023/09/01 13:49:09;;;;;;;2.15;1.20;;;;;;;;;;6214755;23;20504;-68
2023/09/01 13:51:36;;;;;;;2.97;1.30;;;;;;;;;;6215295;23;20391;-67
2023/09/01 13:54:02;;;;;;;1.95;1.30;;;;;;;;;;6215149;23;20127;-68
2023/09/01 13:56:29;;;;;;;2.88;1.52;;;;;;;;;;6215197;23;20068;-68
2023/09/01 13:58:56;;;;;;;2.97;1.38;;;;;;;;;;6215215;23;20083;-68
2023/09/01 14:01:22;;;;;;;3.17;1.50;;;;;;;;;;6215232;23;20071;-68
2023/09/01 14:03:48;;;;;;;2.05;1.42;;;;;;;;;;6187703;23;20080;-68
2023/09/01 14:06:15;;;;;;;3.60;1.38;;;;;;;;;;6215065;23;20491;-68
2023/09/01 14:08:41;;;;;;;3.13;1.63;;;;;;;;;;6215169;23;20079;-68
2023/09/01 14:11:09;;;;;;;6.90;1.52;;;;;;;;;;6215159;23;20083;-68
2023/09/01 14:13:35;;;;;;;5.90;1.60;;;;;;;;;;6214966;23;20075;-68
2023/09/01 14:16:02;;;;;;;2.55;1.23;;;;;;;;;;6214700;23;20075;-67
2023/09/01 14:18:28;;;;;;;2.40;1.58;;;;;;;;;;6214602;23;20071;-67
2023/09/01 14:20:56;;;;;;;5.03;1.60;;;;;;;;;;6215249;23;20076;-67
2023/09/01 14:23:25;;;;;;;1.17;1.02;;;;;;;;;;6215458;23;20071;-67
2023/09/01 14:25:52;;;;;;;2.20;1.60;;;;;;;;;;6215431;23;20064;-67
2023/09/01 14:28:19;;;;;;;2.47;1.65;;;;;;;;;;6188862;23;20076;-67
2023/09/01 14:30:45;;;;;;;4.50;1.70;;;;;;;;;;6215599;23;20084;-68
2023/09/01 14:33:12;;;;;;;3.92;1.83;;;;;;;;;;6215007;23;20080;-67
2023/09/01 14:35:38;;;;;;;7.72;1.83;;;;;;;;;;6215109;23;20111;-69
2023/09/01 14:38:05;;;;;;;4.32;1.70;;;;;;;;;;6215529;23;20083;-68
2023/09/01 14:40:32;;;;;;;2.58;1.70;;;;;;;;;;6215205;23;20076;-67
2023/09/01 14:42:59;;;;;;;6.90;1.52;;;;;;;;;;6214971;23;20125;-68
2023/09/01 14:45:25;;;;;;;4.68;1.95;;;;;;;;;;6215364;23;20067;-67